createdAt,value
2023-07-21T13:22:24.545Z,65.60
2023-07-21T13:24:54.015Z,65.80
2023-07-21T13:27:24.251Z,65.70
2023-07-21T13:29:54.204Z,65.50
2023-07-21T13:32:23.618Z,65.70
2023-07-21T13:34:53.080Z,65.80
2023-07-21T13:37:22.517Z,65.90
2023-07-21T13:39:51.920Z,65.80
2023-07-21T13:42:21.475Z,65.70
2023-07-21T13:44:50.901Z,66.00
2023-07-21T13:47:20.754Z,66.10
2023-07-21T13:49:50.158Z,66.30
2023-07-21T13:52:19.784Z,66.00
2023-07-21T13:54:49.205Z,66.20
2023-07-21T13:57:18.627Z,66.30
2023-07-21T13:59:48.148Z,66.50
2023-07-21T14:02:17.592Z,66.70
2023-07-21T14:04:47.462Z,66.80
2023-07-21T14:07:17.057Z,66.80
2023-07-21T14:09:48.069Z,66.90
2023-07-21T14:12:17.639Z,66.90
2023-07-21T14:14:47.494Z,67.10
2023-07-21T14:17:16.902Z,67.50
2023-07-21T14:19:46.759Z,67.30
2023-07-21T14:22:16.173Z,67.60
2023-07-21T14:24:45.624Z,67.60
2023-07-21T14:27:15.228Z,67.60
2023-07-21T14:29:44.660Z,67.80
2023-07-21T14:32:14.106Z,67.70
2023-07-21T14:34:44.873Z,67.50
2023-07-21T14:37:14.256Z,67.70
2023-07-21T14:39:43.680Z,67.60
2023-07-21T14:42:13.105Z,67.80
2023-07-21T14:44:42.464Z,67.70
2023-07-21T14:47:12.131Z,68.30
2023-07-21T14:49:43.920Z,68.00
2023-07-21T14:52:13.490Z,68.00
2023-07-21T14:54:42.977Z,68.10
2023-07-21T14:57:13.839Z,68.20
2023-07-21T14:59:43.814Z,68.50
2023-07-21T15:02:15.766Z,68.40
